sensor_id;sensor_type;location;lat;lon;timestamp;temperature;humidity
13699;DHT22;6921;53.642;9.956;2023-07-20T00:01:55;14.10;99.90
13699;DHT22;6921;53.642;9.956;2023-07-20T00:10:10;14.10;99.90
13699;DHT22;6921;53.642;9.956;2023-07-20T00:16:22;14.30;99.90
13699;DHT22;6921;53.642;9.956;2023-07-20T00:20:33;14.30;99.90
13699;DHT22;6921;53.642;9.956;2023-07-20T00:24:40;14.40;99.90
13699;DHT22;6921;53.642;9.956;2023-07-20T00:26:43;14.40;99.90
13699;DHT22;6921;53.642;9.956;2023-07-20T00:30:49;14.40;99.90
13699;DHT22;6921;53.642;9.956;2023-07-20T00:32:52;14.50;99.90
13699;DHT22;6921;53.642;9.956;2023-07-20T00:37:00;16.90;99.90
13699;DHT22;6921;53.642;9.956;2023-07-20T00:41:09;14.40;99.90
13699;DHT22;6921;53.642;9.956;2023-07-20T00:43:12;14.40;99.90
13699;DHT22;6921;53.642;9.956;2023-07-20T00:45:15;14.30;99.90
13699;DHT22;6921;53.642;9.956;2023-07-20T00:51:30;14.30;99.90
13699;DHT22;6921;53.642;9.956;2023-07-20T00:55:35;14.20;99.90
13699;DHT22;6921;53.642;9.956;2023-07-20T00:57:39;14.30;99.90
13699;DHT22;6921;53.642;9.956;2023-07-20T01:06:09;14.20;99.90
13699;DHT22;6921;53.642;9.956;2023-07-20T01:08:21;14.10;99.90
13699;DHT22;6921;53.642;9.956;2023-07-20T01:10:31;14.30;99.90
13699;DHT22;6921;53.642;9.956;2023-07-20T01:12:42;14.10;99.90
13699;DHT22;6921;53.642;9.956;2023-07-20T01:18:55;14.10;99.90
13699;DHT22;6921;53.642;9.956;2023-07-20T01:21:01;14.00;99.90
13699;DHT22;6921;53.642;9.956;2023-07-20T01:23:31;14.00;99.90
13699;DHT22;6921;53.642;9.956;2023-07-20T01:25:56;14.00;99.90
13699;DHT22;6921;53.642;9.956;2023-07-20T01:30:52;13.90;99.90
13699;DHT22;6921;53.642;9.956;2023-07-20T01:33:00;14.10;99.90
13699;DHT22;6921;53.642;9.956;2023-07-20T01:35:05;14.00;99.90
13699;DHT22;6921;53.642;9.956;2023-07-20T01:37:10;14.10;99.90
13699;DHT22;6921;53.642;9.956;2023-07-20T01:47:28;14.00;99.90
13699;DHT22;6921;53.642;9.956;2023-07-20T01:49:34;13.40;99.90
13699;DHT22;6921;53.642;9.956;2023-07-20T02:06:02;14.00;99.90
13699;DHT22;6921;53.642;9.956;2023-07-20T02:08:05;14.00;99.90
13699;DHT22;6921;53.642;9.956;2023-07-20T02:10:09;14.00;99.90
13699;DHT22;6921;53.642;9.956;2023-07-20T02:16:25;14.00;99.90
13699;DHT22;6921;53.642;9.956;2023-07-20T02:22:40;14.20;99.90
13699;DHT22;6921;53.642;9.956;2023-07-20T02:39:14;13.90;99.90
13699;DHT22;6921;53.642;9.956;2023-07-20T02:45:24;14.00;99.90
13699;DHT22;6921;53.642;9.956;2023-07-20T02:47:29;14.20;99.90
13699;DHT22;6921;53.642;9.956;2023-07-20T02:51:35;14.00;99.90
13699;DHT22;6921;53.642;9.956;2023-07-20T03:12:20;14.00;99.90
13699;DHT22;6921;53.642;9.956;2023-07-20T03:16:27;13.90;99.90
13699;DHT22;6921;53.642;9.956;2023-07-20T03:20:35;14.30;99.90
13699;DHT22;6921;53.642;9.956;2023-07-20T03:28:56;13.90;99.90
13699;DHT22;6921;53.642;9.956;2023-07-20T03:35:08;13.80;99.90
13699;DHT22;6921;53.642;9.956;2023-07-20T03:43:27;13.80;99.90
13699;DHT22;6921;53.642;9.956;2023-07-20T03:45:32;13.90;99.90
13699;DHT22;6921;53.642;9.956;2023-07-20T03:49:39;13.90;99.90
13699;DHT22;6921;53.642;9.956;2023-07-20T03:53:48;13.90;99.90
13699;DHT22;6921;53.642;9.956;2023-07-20T03:55:52;13.80;99.90
13699;DHT22;6921;53.642;9.956;2023-07-20T04:02:10;13.90;99.90
13699;DHT22;6921;53.642;9.956;2023-07-20T04:04:16;13.80;99.90
13699;DHT22;6921;53.642;9.956;2023-07-20T04:08:23;15.50;99.90
13699;DHT22;6921;53.642;9.956;2023-07-20T04:18:42;13.90;99.90
13699;DHT22;6921;53.642;9.956;2023-07-20T04:35:47;13.90;99.90
13699;DHT22;6921;53.642;9.956;2023-07-20T04:48:12;14.00;99.90
13699;DHT22;6921;53.642;9.956;2023-07-20T04:50:15;13.90;99.90
13699;DHT22;6921;53.642;9.956;2023-07-20T04:52:20;14.30;99.90
13699;DHT22;6921;53.642;9.956;2023-07-20T05:09:08;14.20;99.90
13699;DHT22;6921;53.642;9.956;2023-07-20T05:23:36;14.40;99.90
13699;DHT22;6921;53.642;9.956;2023-07-20T05:42:24;14.60;99.90
13699;DHT22;6921;53.642;9.956;2023-07-20T06:13:47;16.10;99.90
13699;DHT22;6921;53.642;9.956;2023-07-20T06:15:54;15.00;99.90
13699;DHT22;6921;53.642;9.956;2023-07-20T06:24:16;15.20;99.90
13699;DHT22;6921;53.642;9.956;2023-07-20T06:32:32;15.40;99.90
13699;DHT22;6921;53.642;9.956;2023-07-20T06:42:57;15.40;99.90
13699;DHT22;6921;53.642;9.956;2023-07-20T06:45:04;15.40;99.90
13699;DHT22;6921;53.642;9.956;2023-07-20T06:49:25;15.60;99.90
13699;DHT22;6921;53.642;9.956;2023-07-20T06:53:31;15.10;99.90
13699;DHT22;6921;53.642;9.956;2023-07-20T06:55:35;15.90;99.90
13699;DHT22;6921;53.642;9.956;2023-07-20T06:57:41;16.10;99.90
13699;DHT22;6921;53.642;9.956;2023-07-20T06:59:46;16.30;99.90
13699;DHT22;6921;53.642;9.956;2023-07-20T07:01:49;16.10;99.90
13699;DHT22;6921;53.642;9.956;2023-07-20T07:03:53;16.20;99.90
13699;DHT22;6921;53.642;9.956;2023-07-20T07:05:58;16.10;99.90
13699;DHT22;6921;53.642;9.956;2023-07-20T07:08:01;16.00;99.90
13699;DHT22;6921;53.642;9.956;2023-07-20T07:10:05;16.00;99.90
13699;DHT22;6921;53.642;9.956;2023-07-20T07:12:09;16.10;99.90
13699;DHT22;6921;53.642;9.956;2023-07-20T07:14:13;16.10;99.90
13699;DHT22;6921;53.642;9.956;2023-07-20T07:16:15;16.10;99.90
13699;DHT22;6921;53.642;9.956;2023-07-20T07:18:22;16.20;99.90
13699;DHT22;6921;53.642;9.956;2023-07-20T07:20:27;16.40;99.90
13699;DHT22;6921;53.642;9.956;2023-07-20T07:22:32;16.50;99.90
13699;DHT22;6921;53.642;9.956;2023-07-20T07:24:35;16.60;99.90
13699;DHT22;6921;53.642;9.956;2023-07-20T07:26:39;16.70;99.90
13699;DHT22;6921;53.642;9.956;2023-07-20T07:28:41;16.60;99.90
13699;DHT22;6921;53.642;9.956;2023-07-20T07:30:45;16.40;99.90
13699;DHT22;6921;53.642;9.956;2023-07-20T07:32:49;16.70;99.90
13699;DHT22;6921;53.642;9.956;2023-07-20T07:34:54;16.30;99.90
13699;DHT22;6921;53.642;9.956;2023-07-20T07:36:58;16.40;99.90
13699;DHT22;6921;53.642;9.956;2023-07-20T07:39:02;16.00;99.90
13699;DHT22;6921;53.642;9.956;2023-07-20T07:41:09;15.90;99.90
13699;DHT22;6921;53.642;9.956;2023-07-20T07:43:12;17.20;99.90
13699;DHT22;6921;53.642;9.956;2023-07-20T07:45:16;15.80;99.90
13699;DHT22;6921;53.642;9.956;2023-07-20T07:47:19;15.70;99.90
13699;DHT22;6921;53.642;9.956;2023-07-20T07:49:22;15.80;99.90
13699;DHT22;6921;53.642;9.956;2023-07-20T07:51:25;15.90;99.90
13699;DHT22;6921;53.642;9.956;2023-07-20T07:53:29;15.70;99.90
13699;DHT22;6921;53.642;9.956;2023-07-20T07:55:35;16.20;99.90
13699;DHT22;6921;53.642;9.956;2023-07-20T07:57:38;16.20;99.90
13699;DHT22;6921;53.642;9.956;2023-07-20T07:59:41;16.50;99.90
13699;DHT22;6921;53.642;9.956;2023-07-20T08:01:47;16.40;99.90
13699;DHT22;6921;53.642;9.956;2023-07-20T08:03:51;16.50;99.90
13699;DHT22;6921;53.642;9.956;2023-07-20T08:05:55;16.30;99.90
13699;DHT22;6921;53.642;9.956;2023-07-20T08:08:01;15.70;99.90
13699;DHT22;6921;53.642;9.956;2023-07-20T08:10:06;16.70;99.90
13699;DHT22;6921;53.642;9.956;2023-07-20T08:12:15;16.40;99.90
13699;DHT22;6921;53.642;9.956;2023-07-20T08:14:21;16.40;99.90
13699;DHT22;6921;53.642;9.956;2023-07-20T08:16:25;16.80;99.90
13699;DHT22;6921;53.642;9.956;2023-07-20T08:18:29;16.60;99.90
13699;DHT22;6921;53.642;9.956;2023-07-20T08:20:33;16.60;99.90
13699;DHT22;6921;53.642;9.956;2023-07-20T08:22:37;16.70;99.90
13699;DHT22;6921;53.642;9.956;2023-07-20T08:24:41;16.80;99.90
13699;DHT22;6921;53.642;9.956;2023-07-20T08:26:44;16.70;99.90
13699;DHT22;6921;53.642;9.956;2023-07-20T08:30:52;16.60;99.90
13699;DHT22;6921;53.642;9.956;2023-07-20T08:32:56;16.60;99.90
13699;DHT22;6921;53.642;9.956;2023-07-20T08:34:59;16.70;99.90
13699;DHT22;6921;53.642;9.956;2023-07-20T08:37:03;17.50;99.90
13699;DHT22;6921;53.642;9.956;2023-07-20T08:39:06;16.90;99.90
13699;DHT22;6921;53.642;9.956;2023-07-20T08:41:09;16.90;99.90
13699;DHT22;6921;53.642;9.956;2023-07-20T08:43:14;17.00;99.90
13699;DHT22;6921;53.642;9.956;2023-07-20T08:45:22;17.50;99.90
13699;DHT22;6921;53.642;9.956;2023-07-20T08:47:28;17.50;99.90
13699;DHT22;6921;53.642;9.956;2023-07-20T08:49:31;17.40;99.90
13699;DHT22;6921;53.642;9.956;2023-07-20T08:51:35;18.10;99.90
13699;DHT22;6921;53.642;9.956;2023-07-20T08:53:39;17.80;99.90
13699;DHT22;6921;53.642;9.956;2023-07-20T08:55:44;18.20;99.90
13699;DHT22;6921;53.642;9.956;2023-07-20T08:57:50;17.50;99.90
13699;DHT22;6921;53.642;9.956;2023-07-20T08:59:54;17.40;99.90
13699;DHT22;6921;53.642;9.956;2023-07-20T09:02:00;17.40;99.90
13699;DHT22;6921;53.642;9.956;2023-07-20T09:04:05;17.90;99.90
13699;DHT22;6921;53.642;9.956;2023-07-20T09:08:12;17.70;99.90
13699;DHT22;6921;53.642;9.956;2023-07-20T09:10:14;17.90;99.90
13699;DHT22;6921;53.642;9.956;2023-07-20T09:12:17;17.80;93.90
13699;DHT22;6921;53.642;9.956;2023-07-20T09:14:23;18.00;99.90
13699;DHT22;6921;53.642;9.956;2023-07-20T09:16:27;20.40;99.90
13699;DHT22;6921;53.642;9.956;2023-07-20T09:18:33;17.70;99.90
13699;DHT22;6921;53.642;9.956;2023-07-20T09:20:37;17.40;99.90
13699;DHT22;6921;53.642;9.956;2023-07-20T09:22:42;17.00;99.90
13699;DHT22;6921;53.642;9.956;2023-07-20T09:24:47;16.60;99.90
13699;DHT22;6921;53.642;9.956;2023-07-20T09:26:50;16.40;99.90
13699;DHT22;6921;53.642;9.956;2023-07-20T09:28:55;16.20;99.90
13699;DHT22;6921;53.642;9.956;2023-07-20T09:31:15;16.00;99.90
13699;DHT22;6921;53.642;9.956;2023-07-20T09:33:19;16.00;99.90
13699;DHT22;6921;53.642;9.956;2023-07-20T09:35:29;16.00;99.90
13699;DHT22;6921;53.642;9.956;2023-07-20T09:37:46;16.00;99.90
13699;DHT22;6921;53.642;9.956;2023-07-20T09:40:15;16.30;99.90
13699;DHT22;6921;53.642;9.956;2023-07-20T09:42:21;16.30;99.90
13699;DHT22;6921;53.642;9.956;2023-07-20T09:44:29;16.40;99.90
13699;DHT22;6921;53.642;9.956;2023-07-20T09:46:42;16.40;99.90
13699;DHT22;6921;53.642;9.956;2023-07-20T09:48:52;16.70;99.90
13699;DHT22;6921;53.642;9.956;2023-07-20T09:51:03;16.80;99.90
13699;DHT22;6921;53.642;9.956;2023-07-20T09:53:11;16.80;99.90
13699;DHT22;6921;53.642;9.956;2023-07-20T09:55:16;17.60;99.90
13699;DHT22;6921;53.642;9.956;2023-07-20T09:57:21;17.30;99.90
13699;DHT22;6921;53.642;9.956;2023-07-20T09:59:23;17.20;99.90
13699;DHT22;6921;53.642;9.956;2023-07-20T10:01:29;17.40;99.90
13699;DHT22;6921;53.642;9.956;2023-07-20T10:03:34;17.40;99.90
13699;DHT22;6921;53.642;9.956;2023-07-20T10:05:43;17.50;99.90
13699;DHT22;6921;53.642;9.956;2023-07-20T10:07:50;18.30;99.90
13699;DHT22;6921;53.642;9.956;2023-07-20T10:10:15;17.10;99.90
13699;DHT22;6921;53.642;9.956;2023-07-20T10:12:21;17.80;99.90
13699;DHT22;6921;53.642;9.956;2023-07-20T10:14:28;18.00;99.90
13699;DHT22;6921;53.642;9.956;2023-07-20T10:16:36;17.90;99.90
13699;DHT22;6921;53.642;9.956;2023-07-20T10:18:49;18.00;99.90
13699;DHT22;6921;53.642;9.956;2023-07-20T10:20:54;20.30;99.90
13699;DHT22;6921;53.642;9.956;2023-07-20T10:23:03;18.20;99.90
13699;DHT22;6921;53.642;9.956;2023-07-20T10:25:07;18.40;99.90
13699;DHT22;6921;53.642;9.956;2023-07-20T10:27:10;18.30;99.90
13699;DHT22;6921;53.642;9.956;2023-07-20T10:29:16;18.30;99.90
13699;DHT22;6921;53.642;9.956;2023-07-20T10:31:22;18.40;99.90
13699;DHT22;6921;53.642;9.956;2023-07-20T10:33:25;18.40;99.90
13699;DHT22;6921;53.642;9.956;2023-07-20T10:35:29;18.40;99.90
13699;DHT22;6921;53.642;9.956;2023-07-20T10:37:52;18.50;99.90
13699;DHT22;6921;53.642;9.956;2023-07-20T10:39:56;18.60;99.90
13699;DHT22;6921;53.642;9.956;2023-07-20T10:42:01;18.50;99.90
13699;DHT22;6921;53.642;9.956;2023-07-20T10:44:07;18.70;99.90
13699;DHT22;6921;53.642;9.956;2023-07-20T10:46:12;18.40;99.90
13699;DHT22;6921;53.642;9.956;2023-07-20T10:48:18;18.30;99.90
13699;DHT22;6921;53.642;9.956;2023-07-20T10:50:22;17.00;99.90
13699;DHT22;6921;53.642;9.956;2023-07-20T10:52:26;18.30;99.90
13699;DHT22;6921;53.642;9.956;2023-07-20T10:54:49;18.70;99.90
13699;DHT22;6921;53.642;9.956;2023-07-20T10:56:56;18.70;99.90
13699;DHT22;6921;53.642;9.956;2023-07-20T10:59:01;18.70;99.90
13699;DHT22;6921;53.642;9.956;2023-07-20T11:01:20;18.80;99.90
13699;DHT22;6921;53.642;9.956;2023-07-20T11:03:28;18.40;99.90
13699;DHT22;6921;53.642;9.956;2023-07-20T11:05:36;18.30;99.90
13699;DHT22;6921;53.642;9.956;2023-07-20T11:07:40;18.10;99.90
13699;DHT22;6921;53.642;9.956;2023-07-20T11:09:43;17.90;99.90
13699;DHT22;6921;53.642;9.956;2023-07-20T11:11:50;17.90;99.90
13699;DHT22;6921;53.642;9.956;2023-07-20T11:13:58;17.80;99.90
13699;DHT22;6921;53.642;9.956;2023-07-20T11:16:03;17.70;99.90
13699;DHT22;6921;53.642;9.956;2023-07-20T11:18:12;17.40;99.90
13699;DHT22;6921;53.642;9.956;2023-07-20T11:22:22;17.10;99.90
13699;DHT22;6921;53.642;9.956;2023-07-20T11:24:26;17.20;99.90
13699;DHT22;6921;53.642;9.956;2023-07-20T11:26:30;18.10;99.90
13699;DHT22;6921;53.642;9.956;2023-07-20T11:28:34;17.50;99.90
13699;DHT22;6921;53.642;9.956;2023-07-20T11:32:48;18.30;99.90
13699;DHT22;6921;53.642;9.956;2023-07-20T11:34:51;18.60;99.90
13699;DHT22;6921;53.642;9.956;2023-07-20T11:39:02;19.60;15.80
13699;DHT22;6921;53.642;9.956;2023-07-20T11:43:11;20.40;30.50
13699;DHT22;6921;53.642;9.956;2023-07-20T11:45:19;20.40;20.40
13699;DHT22;6921;53.642;9.956;2023-07-20T11:47:29;20.80;1.00
13699;DHT22;6921;53.642;9.956;2023-07-20T11:49:35;21.10;1.00
13699;DHT22;6921;53.642;9.956;2023-07-20T11:51:40;20.90;1.00
13699;DHT22;6921;53.642;9.956;2023-07-20T11:53:44;21.00;1.00
13699;DHT22;6921;53.642;9.956;2023-07-20T11:58:01;20.90;1.00
13699;DHT22;6921;53.642;9.956;2023-07-20T12:00:07;20.30;99.90
13699;DHT22;6921;53.642;9.956;2023-07-20T12:06:23;18.80;99.90
13699;DHT22;6921;53.642;9.956;2023-07-20T12:08:31;18.90;99.90
13699;DHT22;6921;53.642;9.956;2023-07-20T12:10:39;19.00;99.90
13699;DHT22;6921;53.642;9.956;2023-07-20T12:16:53;19.50;99.90
13699;DHT22;6921;53.642;9.956;2023-07-20T12:19:01;18.70;99.90
13699;DHT22;6921;53.642;9.956;2023-07-20T12:21:09;19.40;99.90
13699;DHT22;6921;53.642;9.956;2023-07-20T12:27:27;21.00;99.90
13699;DHT22;6921;53.642;9.956;2023-07-20T12:37:49;19.50;99.90
13699;DHT22;6921;53.642;9.956;2023-07-20T12:42:00;19.40;99.90
13699;DHT22;6921;53.642;9.956;2023-07-20T12:44:06;20.20;99.90
13699;DHT22;6921;53.642;9.956;2023-07-20T12:46:10;21.10;99.90
13699;DHT22;6921;53.642;9.956;2023-07-20T12:48:14;21.70;99.90
13699;DHT22;6921;53.642;9.956;2023-07-20T12:54:27;21.00;1.00
13699;DHT22;6921;53.642;9.956;2023-07-20T12:56:32;21.00;1.00
13699;DHT22;6921;53.642;9.956;2023-07-20T12:58:38;21.40;24.00
13699;DHT22;6921;53.642;9.956;2023-07-20T13:02:46;20.90;1.00
13699;DHT22;6921;53.642;9.956;2023-07-20T13:06:53;20.70;1.00
13699;DHT22;6921;53.642;9.956;2023-07-20T13:08:56;20.80;1.00
13699;DHT22;6921;53.642;9.956;2023-07-20T13:11:01;21.10;1.00
13699;DHT22;6921;53.642;9.956;2023-07-20T13:13:07;21.20;1.00
13699;DHT22;6921;53.642;9.956;2023-07-20T13:15:11;21.50;1.00
13699;DHT22;6921;53.642;9.956;2023-07-20T13:19:19;21.00;1.00
13699;DHT22;6921;53.642;9.956;2023-07-20T13:23:27;20.60;72.80
13699;DHT22;6921;53.642;9.956;2023-07-20T13:25:30;20.70;44.00
13699;DHT22;6921;53.642;9.956;2023-07-20T13:27:35;21.10;12.40
13699;DHT22;6921;53.642;9.956;2023-07-20T13:29:39;21.10;1.30
13699;DHT22;6921;53.642;9.956;2023-07-20T13:31:42;21.60;1.00
13699;DHT22;6921;53.642;9.956;2023-07-20T13:33:46;22.00;1.00
13699;DHT22;6921;53.642;9.956;2023-07-20T13:35:57;22.20;1.00
13699;DHT22;6921;53.642;9.956;2023-07-20T13:38:08;22.30;99.90
13699;DHT22;6921;53.642;9.956;2023-07-20T13:40:15;22.00;1.00
13699;DHT22;6921;53.642;9.956;2023-07-20T13:42:20;22.40;1.00
13699;DHT22;6921;53.642;9.956;2023-07-20T13:44:42;22.10;1.00
13699;DHT22;6921;53.642;9.956;2023-07-20T13:48:49;22.50;99.90
13699;DHT22;6921;53.642;9.956;2023-07-20T13:50:56;22.70;1.00
13699;DHT22;6921;53.642;9.956;2023-07-20T13:53:01;22.80;1.00
13699;DHT22;6921;53.642;9.956;2023-07-20T13:55:08;22.90;99.90
13699;DHT22;6921;53.642;9.956;2023-07-20T13:57:12;22.70;1.00
13699;DHT22;6921;53.642;9.956;2023-07-20T14:01:22;22.80;1.00
13699;DHT22;6921;53.642;9.956;2023-07-20T14:03:29;22.60;1.00
13699;DHT22;6921;53.642;9.956;2023-07-20T14:05:32;22.70;1.00
13699;DHT22;6921;53.642;9.956;2023-07-20T14:07:39;21.70;1.00
13699;DHT22;6921;53.642;9.956;2023-07-20T14:09:41;21.70;1.00
13699;DHT22;6921;53.642;9.956;2023-07-20T14:11:48;21.20;1.00
13699;DHT22;6921;53.642;9.956;2023-07-20T14:20:49;22.10;97.20
13699;DHT22;6921;53.642;9.956;2023-07-20T14:22:53;22.10;99.90
13699;DHT22;6921;53.642;9.956;2023-07-20T14:24:59;22.60;99.90
13699;DHT22;6921;53.642;9.956;2023-07-20T14:27:03;22.90;99.90
13699;DHT22;6921;53.642;9.956;2023-07-20T14:29:09;22.80;99.90
13699;DHT22;6921;53.642;9.956;2023-07-20T14:33:17;22.40;1.00
13699;DHT22;6921;53.642;9.956;2023-07-20T14:35:21;22.30;1.00
13699;DHT22;6921;53.642;9.956;2023-07-20T14:37:25;22.90;99.90
13699;DHT22;6921;53.642;9.956;2023-07-20T14:39:30;23.30;99.90
13699;DHT22;6921;53.642;9.956;2023-07-20T14:41:33;23.60;99.90
13699;DHT22;6921;53.642;9.956;2023-07-20T14:43:37;23.60;99.90
13699;DHT22;6921;53.642;9.956;2023-07-20T14:45:41;23.80;99.90
13699;DHT22;6921;53.642;9.956;2023-07-20T14:47:44;23.90;99.90
13699;DHT22;6921;53.642;9.956;2023-07-20T14:49:47;23.60;1.00
13699;DHT22;6921;53.642;9.956;2023-07-20T14:51:51;23.10;1.00
13699;DHT22;6921;53.642;9.956;2023-07-20T14:53:56;22.80;1.00
13699;DHT22;6921;53.642;9.956;2023-07-20T14:58:04;22.90;1.00
13699;DHT22;6921;53.642;9.956;2023-07-20T15:00:08;23.50;1.00
13699;DHT22;6921;53.642;9.956;2023-07-20T15:02:12;23.30;1.00
13699;DHT22;6921;53.642;9.956;2023-07-20T15:04:15;23.30;1.00
13699;DHT22;6921;53.642;9.956;2023-07-20T15:06:19;23.00;1.00
13699;DHT22;6921;53.642;9.956;2023-07-20T15:08:23;22.80;1.00
13699;DHT22;6921;53.642;9.956;2023-07-20T15:10:28;23.10;1.00
13699;DHT22;6921;53.642;9.956;2023-07-20T15:12:32;23.30;1.00
13699;DHT22;6921;53.642;9.956;2023-07-20T15:14:35;23.50;1.00
13699;DHT22;6921;53.642;9.956;2023-07-20T15:16:38;23.70;1.00
13699;DHT22;6921;53.642;9.956;2023-07-20T15:20:51;26.40;1.00
13699;DHT22;6921;53.642;9.956;2023-07-20T15:22:56;24.00;1.00
13699;DHT22;6921;53.642;9.956;2023-07-20T15:27:06;23.70;1.00
13699;DHT22;6921;53.642;9.956;2023-07-20T15:29:09;23.00;1.00
13699;DHT22;6921;53.642;9.956;2023-07-20T15:31:17;22.70;1.00
13699;DHT22;6921;53.642;9.956;2023-07-20T15:33:22;22.60;1.00
13699;DHT22;6921;53.642;9.956;2023-07-20T15:35:28;22.50;1.00
13699;DHT22;6921;53.642;9.956;2023-07-20T15:37:31;22.20;1.00
13699;DHT22;6921;53.642;9.956;2023-07-20T15:39:35;21.80;11.10
13699;DHT22;6921;53.642;9.956;2023-07-20T15:41:38;22.10;1.00
13699;DHT22;6921;53.642;9.956;2023-07-20T15:43:45;22.00;24.60
13699;DHT22;6921;53.642;9.956;2023-07-20T15:45:49;22.00;1.00
13699;DHT22;6921;53.642;9.956;2023-07-20T15:47:53;22.00;1.00
13699;DHT22;6921;53.642;9.956;2023-07-20T15:49:57;22.00;1.00
13699;DHT22;6921;53.642;9.956;2023-07-20T15:52:02;22.30;1.00
13699;DHT22;6921;53.642;9.956;2023-07-20T15:54:09;22.30;1.00
13699;DHT22;6921;53.642;9.956;2023-07-20T15:58:16;22.50;1.00
13699;DHT22;6921;53.642;9.956;2023-07-20T16:02:26;22.20;73.10
13699;DHT22;6921;53.642;9.956;2023-07-20T16:04:30;21.80;1.00
13699;DHT22;6921;53.642;9.956;2023-07-20T16:06:36;21.70;27.80
13699;DHT22;6921;53.642;9.956;2023-07-20T16:12:49;21.30;1.00
13699;DHT22;6921;53.642;9.956;2023-07-20T16:14:55;21.10;1.00
13699;DHT22;6921;53.642;9.956;2023-07-20T16:19:06;20.90;1.00
13699;DHT22;6921;53.642;9.956;2023-07-20T16:21:09;21.00;26.30
13699;DHT22;6921;53.642;9.956;2023-07-20T16:25:18;22.70;63.40
13699;DHT22;6921;53.642;9.956;2023-07-20T16:27:21;20.30;67.00
13699;DHT22;6921;53.642;9.956;2023-07-20T16:29:24;20.90;38.70
13699;DHT22;6921;53.642;9.956;2023-07-20T16:31:28;22.70;99.90
13699;DHT22;6921;53.642;9.956;2023-07-20T16:33:34;20.90;1.00
13699;DHT22;6921;53.642;9.956;2023-07-20T16:35:47;20.60;7.30
13699;DHT22;6921;53.642;9.956;2023-07-20T16:39:58;20.30;24.80
13699;DHT22;6921;53.642;9.956;2023-07-20T16:42:06;20.20;99.10
13699;DHT22;6921;53.642;9.956;2023-07-20T16:46:14;20.00;99.90
13699;DHT22;6921;53.642;9.956;2023-07-20T16:48:21;20.40;99.90
13699;DHT22;6921;53.642;9.956;2023-07-20T16:50:27;20.40;99.90
13699;DHT22;6921;53.642;9.956;2023-07-20T16:52:31;20.30;99.90
13699;DHT22;6921;53.642;9.956;2023-07-20T16:54:37;20.30;99.90
13699;DHT22;6921;53.642;9.956;2023-07-20T16:56:40;20.30;99.90
13699;DHT22;6921;53.642;9.956;2023-07-20T16:58:44;20.20;99.90
13699;DHT22;6921;53.642;9.956;2023-07-20T17:00:48;20.30;99.90
13699;DHT22;6921;53.642;9.956;2023-07-20T17:02:52;20.30;99.90
13699;DHT22;6921;53.642;9.956;2023-07-20T17:04:56;20.30;99.90
13699;DHT22;6921;53.642;9.956;2023-07-20T17:07:01;20.30;99.90
13699;DHT22;6921;53.642;9.956;2023-07-20T17:11:08;20.20;99.90
13699;DHT22;6921;53.642;9.956;2023-07-20T17:13:12;20.20;99.90
13699;DHT22;6921;53.642;9.956;2023-07-20T17:15:16;20.20;99.90
13699;DHT22;6921;53.642;9.956;2023-07-20T17:17:20;20.20;99.90
13699;DHT22;6921;53.642;9.956;2023-07-20T17:19:23;20.20;99.90
13699;DHT22;6921;53.642;9.956;2023-07-20T17:21:33;20.10;99.90
13699;DHT22;6921;53.642;9.956;2023-07-20T17:23:38;19.90;99.90
13699;DHT22;6921;53.642;9.956;2023-07-20T17:25:45;19.50;99.90
13699;DHT22;6921;53.642;9.956;2023-07-20T17:27:52;19.70;99.90
13699;DHT22;6921;53.642;9.956;2023-07-20T17:30:00;19.70;99.90
13699;DHT22;6921;53.642;9.956;2023-07-20T17:32:06;19.10;99.90
13699;DHT22;6921;53.642;9.956;2023-07-20T17:38:23;19.50;99.90
13699;DHT22;6921;53.642;9.956;2023-07-20T17:40:50;19.30;99.90
13699;DHT22;6921;53.642;9.956;2023-07-20T17:45:02;19.20;99.90
13699;DHT22;6921;53.642;9.956;2023-07-20T17:51:18;19.20;99.90
13699;DHT22;6921;53.642;9.956;2023-07-20T17:53:25;19.20;99.90
13699;DHT22;6921;53.642;9.956;2023-07-20T17:57:36;19.10;99.90
13699;DHT22;6921;53.642;9.956;2023-07-20T18:14:29;18.70;99.90
13699;DHT22;6921;53.642;9.956;2023-07-20T18:16:34;18.70;99.90
13699;DHT22;6921;53.642;9.956;2023-07-20T18:28:57;18.40;99.90
13699;DHT22;6921;53.642;9.956;2023-07-20T18:45:36;18.10;99.90
13699;DHT22;6921;53.642;9.956;2023-07-20T18:47:43;18.10;99.90
13699;DHT22;6921;53.642;9.956;2023-07-20T18:51:56;18.10;99.90
13699;DHT22;6921;53.642;9.956;2023-07-20T18:54:02;18.00;99.90
13699;DHT22;6921;53.642;9.956;2023-07-20T18:58:15;18.10;99.90
13699;DHT22;6921;53.642;9.956;2023-07-20T19:10:58;17.60;99.90
13699;DHT22;6921;53.642;9.956;2023-07-20T19:17:17;17.60;99.90
13699;DHT22;6921;53.642;9.956;2023-07-20T19:23:31;17.50;99.90
13699;DHT22;6921;53.642;9.956;2023-07-20T19:27:43;17.50;99.90
13699;DHT22;6921;53.642;9.956;2023-07-20T19:33:54;17.50;99.90
13699;DHT22;6921;53.642;9.956;2023-07-20T19:36:02;17.40;99.90
13699;DHT22;6921;53.642;9.956;2023-07-20T19:40:14;17.40;99.90
13699;DHT22;6921;53.642;9.956;2023-07-20T19:46:28;17.30;99.90
13699;DHT22;6921;53.642;9.956;2023-07-20T20:03:13;17.20;99.90
13699;DHT22;6921;53.642;9.956;2023-07-20T20:09:28;17.20;99.90
13699;DHT22;6921;53.642;9.956;2023-07-20T20:13:41;17.10;99.90
13699;DHT22;6921;53.642;9.956;2023-07-20T20:15:45;17.30;99.90
13699;DHT22;6921;53.642;9.956;2023-07-20T20:17:50;17.20;99.90
13699;DHT22;6921;53.642;9.956;2023-07-20T20:19:53;17.10;99.90
13699;DHT22;6921;53.642;9.956;2023-07-20T20:24:15;17.00;99.90
13699;DHT22;6921;53.642;9.956;2023-07-20T20:26:18;17.40;99.90
13699;DHT22;6921;53.642;9.956;2023-07-20T20:28:27;17.10;99.90
13699;DHT22;6921;53.642;9.956;2023-07-20T20:30:31;17.00;99.90
13699;DHT22;6921;53.642;9.956;2023-07-20T20:32:36;16.90;99.90
13699;DHT22;6921;53.642;9.956;2023-07-20T20:34:47;16.20;99.90
13699;DHT22;6921;53.642;9.956;2023-07-20T20:36:51;16.90;99.90
13699;DHT22;6921;53.642;9.956;2023-07-20T20:41:06;16.90;99.90
13699;DHT22;6921;53.642;9.956;2023-07-20T20:43:11;16.90;99.90
13699;DHT22;6921;53.642;9.956;2023-07-20T20:49:30;16.80;99.90
13699;DHT22;6921;53.642;9.956;2023-07-20T20:51:35;16.80;99.90
13699;DHT22;6921;53.642;9.956;2023-07-20T20:59:55;16.70;99.90
13699;DHT22;6921;53.642;9.956;2023-07-20T21:02:01;16.70;99.90
13699;DHT22;6921;53.642;9.956;2023-07-20T21:06:09;16.70;99.90
13699;DHT22;6921;53.642;9.956;2023-07-20T21:14:26;16.50;99.90
13699;DHT22;6921;53.642;9.956;2023-07-20T21:16:29;16.40;99.90
13699;DHT22;6921;53.642;9.956;2023-07-20T21:18:37;16.40;99.90
13699;DHT22;6921;53.642;9.956;2023-07-20T21:20:43;14.90;99.90
13699;DHT22;6921;53.642;9.956;2023-07-20T21:26:55;16.30;99.90
13699;DHT22;6921;53.642;9.956;2023-07-20T21:28:59;16.20;99.90
13699;DHT22;6921;53.642;9.956;2023-07-20T21:33:10;16.00;99.90
13699;DHT22;6921;53.642;9.956;2023-07-20T21:39:51;15.70;99.90
13699;DHT22;6921;53.642;9.956;2023-07-20T21:43:59;15.60;99.90
13699;DHT22;6921;53.642;9.956;2023-07-20T21:48:09;15.50;99.90
13699;DHT22;6921;53.642;9.956;2023-07-20T21:54:22;15.40;99.90
13699;DHT22;6921;53.642;9.956;2023-07-20T22:15:04;14.90;99.90
13699;DHT22;6921;53.642;9.956;2023-07-20T22:42:03;14.70;99.90
13699;DHT22;6921;53.642;9.956;2023-07-20T23:13:08;14.80;99.90
13699;DHT22;6921;53.642;9.956;2023-07-20T23:15:14;16.70;99.90